createdAt,value
2019-05-01T00:01:39.293Z,14.90
2019-05-01T00:04:16.406Z,14.90
2019-05-01T00:06:47.472Z,14.90
2019-05-01T00:09:17.074Z,14.90
2019-05-01T00:11:47.142Z,14.90
2019-05-01T00:14:16.741Z,14.90
2019-05-01T00:16:46.882Z,14.90
2019-05-01T00:19:16.254Z,14.80
2019-05-01T00:21:45.699Z,14.90
2019-05-01T00:24:15.058Z,14.90
2019-05-01T00:26:44.429Z,14.80
2019-05-01T00:29:13.832Z,14.70
2019-05-01T00:31:43.231Z,14.70
2019-05-01T00:34:12.675Z,14.60
2019-05-01T00:36:42.024Z,14.60
2019-05-01T00:39:12.778Z,14.50
2019-05-01T00:41:42.146Z,14.50
2019-05-01T00:44:11.499Z,14.50
2019-05-01T00:46:40.874Z,14.30
2019-05-01T00:49:10.235Z,14.10
2019-05-01T00:51:39.595Z,14.10
2019-05-01T00:54:08.951Z,14.10
2019-05-01T00:56:46.057Z,14.10
2019-05-01T00:59:33.224Z,14.10
2019-05-01T01:02:07.461Z,14.00
2019-05-01T01:04:39.982Z,14.00
2019-05-01T01:07:09.397Z,13.90
2019-05-01T01:09:38.847Z,13.90
2019-05-01T01:12:08.443Z,13.60
2019-05-01T01:14:37.823Z,13.70
2019-05-01T01:17:07.187Z,13.80
2019-05-01T01:19:36.575Z,13.70
2019-05-01T01:22:06.203Z,13.70
2019-05-01T01:24:35.651Z,13.70
2019-05-01T01:27:05.088Z,13.70
2019-05-01T01:29:34.437Z,13.70
2019-05-01T01:32:03.991Z,13.60
2019-05-01T01:34:33.348Z,13.60
2019-05-01T01:37:02.775Z,13.60
2019-05-01T01:39:32.290Z,13.60
2019-05-01T01:42:02.003Z,13.60
2019-05-01T01:44:33.005Z,13.60
2019-05-01T01:47:02.799Z,13.60
2019-05-01T01:49:32.298Z,13.60
2019-05-01T01:52:01.999Z,13.50
2019-05-01T01:54:31.620Z,13.50
2019-05-01T01:57:01.333Z,13.40
2019-05-01T01:59:31.226Z,13.40
2019-05-01T02:02:02.499Z,13.40
2019-05-01T02:04:45.950Z,13.30
2019-05-01T02:07:15.596Z,13.30
2019-05-01T02:09:45.090Z,13.30
2019-05-01T02:12:14.955Z,13.20
2019-05-01T02:14:44.451Z,13.20
2019-05-01T02:17:13.820Z,13.10
2019-05-01T02:19:43.190Z,13.20
2019-05-01T02:22:12.634Z,13.10
2019-05-01T02:24:42.058Z,13.10
2019-05-01T02:27:13.404Z,13.00
2019-05-01T02:29:44.937Z,12.90
2019-05-01T02:32:16.936Z,13.00
2019-05-01T02:34:47.237Z,12.90
2019-05-01T02:37:17.943Z,12.90
2019-05-01T02:39:49.317Z,12.90
2019-05-01T02:42:22.211Z,12.80
2019-05-01T02:44:54.819Z,12.80
2019-05-01T02:47:27.255Z,12.80
2019-05-01T02:50:08.304Z,12.80
2019-05-01T02:52:40.220Z,12.80
2019-05-01T02:55:13.032Z,12.70
2019-05-01T02:57:43.330Z,12.70
2019-05-01T03:00:13.203Z,12.60
2019-05-01T03:02:42.925Z,12.60
2019-05-01T03:05:12.416Z,12.60
2019-05-01T03:07:42.228Z,12.60
2019-05-01T03:10:12.025Z,12.60
2019-05-01T03:12:43.632Z,12.50
2019-05-01T03:15:13.574Z,12.50
2019-05-01T03:17:56.836Z,12.50
2019-05-01T03:20:38.145Z,12.40
2019-05-01T03:23:29.339Z,12.40
2019-05-01T03:25:59.237Z,12.40
2019-05-01T03:28:28.939Z,12.40
2019-05-01T03:30:58.361Z,12.30
2019-05-01T03:33:27.900Z,12.30
2019-05-01T03:35:57.519Z,12.20
2019-05-01T03:38:27.232Z,12.20
2019-05-01T03:40:57.539Z,12.20
2019-05-01T03:43:27.649Z,12.20
2019-05-01T03:45:57.341Z,12.20
2019-05-01T03:48:27.448Z,12.10
2019-05-01T03:50:57.167Z,12.10
2019-05-01T03:53:26.807Z,12.10
2019-05-01T03:55:56.441Z,12.10
2019-05-01T03:58:26.054Z,12.10
2019-05-01T04:00:57.225Z,12.10
2019-05-01T04:03:29.037Z,12.10
2019-05-01T04:05:58.525Z,12.00
2019-05-01T04:08:28.535Z,12.00
2019-05-01T04:10:58.242Z,12.00
2019-05-01T04:13:27.598Z,12.10
2019-05-01T04:15:57.452Z,12.10
2019-05-01T04:18:27.754Z,12.00
2019-05-01T04:20:58.190Z,12.00
2019-05-01T04:23:28.705Z,12.00
2019-05-01T04:25:58.382Z,12.00
2019-05-01T04:28:48.000Z,12.00
2019-05-01T04:31:22.242Z,12.10
2019-05-01T04:33:53.824Z,12.10
2019-05-01T04:36:25.059Z,12.10
2019-05-01T04:38:55.291Z,12.10
2019-05-01T04:41:24.995Z,12.00
2019-05-01T04:43:54.432Z,12.10
2019-05-01T04:46:24.224Z,12.10
2019-05-01T04:48:53.732Z,12.10
2019-05-01T04:51:23.227Z,12.20
2019-05-01T04:53:52.811Z,12.20
2019-05-01T04:56:22.410Z,12.30
2019-05-01T04:58:52.119Z,12.30
2019-05-01T05:01:21.639Z,12.40
2019-05-01T05:03:51.354Z,12.40
2019-05-01T05:06:21.028Z,12.50
2019-05-01T05:08:50.742Z,12.50
2019-05-01T05:11:21.882Z,12.60
2019-05-01T05:14:08.185Z,12.60
2019-05-01T05:16:45.619Z,12.60
2019-05-01T05:19:15.413Z,12.70
2019-05-01T05:21:45.340Z,12.80
2019-05-01T05:24:15.243Z,12.80
2019-05-01T05:26:45.332Z,12.90
2019-05-01T05:29:17.178Z,13.00
2019-05-01T05:31:47.824Z,13.00
2019-05-01T05:34:19.584Z,13.10
2019-05-01T05:36:52.453Z,13.20
2019-05-01T05:39:37.296Z,13.40
2019-05-01T05:42:07.984Z,13.40
2019-05-01T05:44:37.923Z,13.50
2019-05-01T05:47:07.550Z,13.60
2019-05-01T05:49:37.101Z,13.70
2019-05-01T05:52:14.074Z,13.60
2019-05-01T05:55:03.344Z,13.80
2019-05-01T05:57:38.261Z,13.90
2019-05-01T06:00:10.342Z,14.00
2019-05-01T06:02:44.812Z,14.20
2019-05-01T06:05:19.480Z,14.30
2019-05-01T06:08:10.702Z,14.50
2019-05-01T06:11:03.131Z,14.50
2019-05-01T06:13:57.083Z,14.50
2019-05-01T06:16:32.671Z,14.50
2019-05-01T06:19:04.117Z,14.60
2019-05-01T06:21:35.957Z,14.80
2019-05-01T06:24:07.663Z,14.90
2019-05-01T06:26:39.271Z,15.10
2019-05-01T06:29:08.234Z,15.20
2019-05-01T06:31:38.088Z,15.50
2019-05-01T06:34:07.609Z,15.70
2019-05-01T06:36:37.318Z,15.90
2019-05-01T06:39:12.035Z,16.20
2019-05-01T06:41:42.794Z,16.20
2019-05-01T06:44:15.370Z,16.30
2019-05-01T06:46:46.916Z,16.40
2019-05-01T06:49:34.254Z,16.60
2019-05-01T06:52:05.912Z,16.70
2019-05-01T06:54:36.332Z,17.00
2019-05-01T06:57:06.725Z,17.10
2019-05-01T06:59:38.208Z,17.30
2019-05-01T07:02:09.392Z,17.40
2019-05-01T07:04:39.902Z,17.60
2019-05-01T07:07:24.049Z,17.60
2019-05-01T07:09:44.216Z,17.70
2019-05-01T07:12:15.308Z,17.50
2019-05-01T07:14:47.208Z,17.80
2019-05-01T07:17:16.587Z,18.00
2019-05-01T07:20:03.219Z,18.10
2019-05-01T07:22:37.070Z,18.00
2019-05-01T07:25:09.091Z,17.40
2019-05-01T07:27:38.599Z,17.30
2019-05-01T07:30:11.146Z,17.90
2019-05-01T07:32:42.696Z,18.10
2019-05-01T07:35:12.563Z,18.20
2019-05-01T07:37:42.359Z,18.20
2019-05-01T07:40:12.271Z,18.20
2019-05-01T07:42:43.714Z,18.60
2019-05-01T07:45:18.526Z,18.70
2019-05-01T07:47:49.649Z,18.70
2019-05-01T07:50:19.511Z,18.90
2019-05-01T07:52:52.211Z,18.90
2019-05-01T07:55:22.480Z,18.70
2019-05-01T07:57:52.261Z,18.90
2019-05-01T08:00:36.979Z,19.20
2019-05-01T08:03:07.240Z,19.40
2019-05-01T08:05:40.937Z,19.20
2019-05-01T08:08:09.564Z,19.30
2019-05-01T08:10:39.206Z,18.80
2019-05-01T08:13:08.565Z,19.10
2019-05-01T08:15:38.079Z,19.50
2019-05-01T08:18:11.890Z,20.10
2019-05-01T08:20:45.795Z,20.30
2019-05-01T08:23:14.167Z,20.50
2019-05-01T08:25:43.699Z,20.70
2019-05-01T08:28:17.732Z,20.90
2019-05-01T08:30:52.739Z,21.10
2019-05-01T08:33:39.659Z,20.90
2019-05-01T08:36:11.671Z,21.10
2019-05-01T08:38:41.254Z,21.10
2019-05-01T08:41:10.740Z,21.00
2019-05-01T08:43:40.470Z,20.80
2019-05-01T08:46:32.498Z,21.00
2019-05-01T08:49:15.656Z,21.10
2019-05-01T08:51:45.178Z,21.40
2019-05-01T08:54:14.612Z,21.40
2019-05-01T08:56:44.088Z,20.40
2019-05-01T08:59:13.628Z,20.60
2019-05-01T09:01:45.803Z,20.60
2019-05-01T09:04:14.143Z,20.80
2019-05-01T09:06:45.103Z,20.80
2019-05-01T09:09:14.643Z,20.60
2019-05-01T09:11:44.022Z,21.10
2019-05-01T09:14:13.445Z,21.30
2019-05-01T09:16:42.833Z,20.80
2019-05-01T09:19:12.247Z,20.70
2019-05-01T09:21:41.691Z,21.10
2019-05-01T09:24:11.117Z,21.60
2019-05-01T09:26:50.031Z,21.70
2019-05-01T09:29:18.166Z,21.70
2019-05-01T09:31:48.309Z,21.50
2019-05-01T09:34:19.266Z,21.50
2019-05-01T09:36:48.728Z,21.50
2019-05-01T09:39:18.923Z,21.70
2019-05-01T09:41:48.818Z,21.70
2019-05-01T09:44:18.475Z,21.50
2019-05-01T09:46:48.123Z,21.60
2019-05-01T09:49:18.333Z,21.90
2019-05-01T09:52:06.991Z,21.80
2019-05-01T09:54:47.887Z,21.90
2019-05-01T09:57:17.502Z,22.00
2019-05-01T09:59:46.927Z,22.50
2019-05-01T10:02:16.299Z,22.60
2019-05-01T10:04:45.732Z,21.90
2019-05-01T10:07:15.250Z,21.70
2019-05-01T10:09:47.364Z,22.30
2019-05-01T10:12:15.700Z,22.00
2019-05-01T10:14:45.238Z,21.90
2019-05-01T10:17:14.602Z,22.50
2019-05-01T10:19:44.073Z,22.70
2019-05-01T10:22:13.424Z,23.10
2019-05-01T10:24:42.858Z,23.40
2019-05-01T10:27:13.848Z,23.70
2019-05-01T10:30:07.275Z,23.50
2019-05-01T10:32:41.023Z,23.60
2019-05-01T10:35:21.613Z,23.70
2019-05-01T10:37:51.107Z,23.80
2019-05-01T10:40:22.301Z,23.30
2019-05-01T10:42:51.923Z,23.20
2019-05-01T10:45:21.292Z,23.70
2019-05-01T10:47:50.760Z,23.70
2019-05-01T10:50:20.118Z,23.90
2019-05-01T10:52:49.483Z,24.30
2019-05-01T10:55:18.922Z,24.40
2019-05-01T10:57:48.282Z,23.90
2019-05-01T11:00:18.547Z,24.00
2019-05-01T11:02:47.900Z,24.50
2019-05-01T11:05:17.350Z,24.10
2019-05-01T11:07:46.790Z,24.40
2019-05-01T11:10:16.776Z,24.00
2019-05-01T11:12:46.142Z,24.00
2019-05-01T11:15:16.015Z,24.00
2019-05-01T11:17:45.447Z,24.30
2019-05-01T11:20:15.154Z,24.10
2019-05-01T11:22:44.573Z,24.70
2019-05-01T11:25:15.826Z,24.50
2019-05-01T11:27:45.281Z,24.40
2019-05-01T11:30:15.855Z,24.40
2019-05-01T11:33:02.702Z,24.20
2019-05-01T11:35:50.209Z,23.50
2019-05-01T11:38:37.727Z,24.10
2019-05-01T11:41:20.950Z,24.10
2019-05-01T11:43:50.304Z,24.10
2019-05-01T11:46:19.816Z,24.40
2019-05-01T11:48:49.256Z,24.60
2019-05-01T11:51:18.629Z,24.60
2019-05-01T11:53:47.987Z,24.30
2019-05-01T11:56:17.505Z,25.10
2019-05-01T11:58:46.878Z,25.40
2019-05-01T12:01:17.873Z,25.10
2019-05-01T12:03:47.233Z,25.60
2019-05-01T12:06:22.960Z,25.70
2019-05-01T12:08:47.688Z,25.30
2019-05-01T12:11:18.746Z,25.50
2019-05-01T12:13:48.116Z,25.00
2019-05-01T12:16:19.107Z,25.40
2019-05-01T12:18:48.527Z,25.70
2019-05-01T12:21:17.902Z,25.80
2019-05-01T12:23:48.633Z,25.90
2019-05-01T12:26:18.091Z,26.20
2019-05-01T12:28:48.987Z,25.70
2019-05-01T12:31:18.374Z,25.20
2019-05-01T12:33:47.830Z,24.80
2019-05-01T12:36:17.187Z,24.40
2019-05-01T12:38:46.531Z,25.00
2019-05-01T12:41:32.792Z,24.60
2019-05-01T12:44:02.223Z,24.20
2019-05-01T12:46:36.291Z,24.70
2019-05-01T12:49:05.712Z,24.90
2019-05-01T12:51:35.623Z,24.60
2019-05-01T12:54:32.027Z,24.80
2019-05-01T12:57:02.540Z,25.00
2019-05-01T12:59:31.891Z,25.30
2019-05-01T13:02:01.327Z,25.60
2019-05-01T13:04:30.677Z,25.60
2019-05-01T13:07:00.490Z,25.60
2019-05-01T13:09:30.039Z,25.80
2019-05-01T13:11:59.407Z,25.70
2019-05-01T13:14:28.766Z,25.60
2019-05-01T13:16:58.146Z,25.70
2019-05-01T13:19:27.677Z,25.90
2019-05-01T13:21:57.158Z,26.00
2019-05-01T13:24:26.555Z,26.10
2019-05-01T13:26:57.635Z,25.60
2019-05-01T13:29:31.744Z,25.70
2019-05-01T13:32:21.261Z,25.90
2019-05-01T13:34:50.869Z,25.50
2019-05-01T13:37:20.298Z,25.60
2019-05-01T13:39:49.719Z,25.40
2019-05-01T13:42:19.135Z,25.10
2019-05-01T13:44:48.479Z,25.10
2019-05-01T13:47:17.927Z,25.30
2019-05-01T13:49:47.263Z,25.40
2019-05-01T13:52:16.635Z,25.10
2019-05-01T13:54:46.131Z,25.10
2019-05-01T13:57:15.671Z,25.20
2019-05-01T13:59:45.001Z,25.00
2019-05-01T14:02:14.739Z,25.10
2019-05-01T14:04:44.351Z,25.10
2019-05-01T14:07:16.571Z,25.20
2019-05-01T14:09:44.759Z,24.90
2019-05-01T14:12:14.199Z,24.60
2019-05-01T14:14:43.602Z,24.70
2019-05-01T14:17:12.991Z,25.00
2019-05-01T14:19:43.980Z,25.00
2019-05-01T14:22:31.191Z,25.00
2019-05-01T14:25:02.188Z,24.80
2019-05-01T14:27:31.558Z,24.50
2019-05-01T14:30:00.921Z,24.50
2019-05-01T14:32:30.376Z,24.50
2019-05-01T14:34:59.814Z,24.50
2019-05-01T14:37:29.961Z,24.60
2019-05-01T14:39:59.538Z,24.80
2019-05-01T14:42:28.892Z,24.80
2019-05-01T14:44:58.330Z,24.80
2019-05-01T14:47:27.741Z,24.80
2019-05-01T14:49:57.143Z,24.90
2019-05-01T14:52:26.529Z,24.70
2019-05-01T14:54:55.881Z,24.70
2019-05-01T14:57:25.211Z,24.20
2019-05-01T14:59:54.651Z,24.30
2019-05-01T15:02:24.102Z,24.10
2019-05-01T15:04:53.463Z,24.50
2019-05-01T15:07:22.810Z,24.40
2019-05-01T15:09:52.272Z,24.50
2019-05-01T15:12:21.682Z,24.60
2019-05-01T15:14:55.794Z,24.40
2019-05-01T15:17:32.966Z,24.50
2019-05-01T15:20:04.187Z,24.30
2019-05-01T15:22:33.611Z,23.90
2019-05-01T15:25:03.322Z,24.20
2019-05-01T15:27:32.682Z,24.30
2019-05-01T15:30:02.051Z,24.50
2019-05-01T15:32:31.663Z,24.50
2019-05-01T15:35:01.129Z,24.50
2019-05-01T15:37:30.681Z,24.60
2019-05-01T15:40:01.742Z,23.90
2019-05-01T15:42:32.732Z,24.30
2019-05-01T15:45:02.386Z,24.10
2019-05-01T15:47:31.735Z,24.20
2019-05-01T15:50:01.171Z,24.10
2019-05-01T15:52:30.523Z,24.20
2019-05-01T15:54:59.881Z,24.00
2019-05-01T15:57:29.376Z,24.20
2019-05-01T15:59:58.736Z,24.30
2019-05-01T16:02:28.084Z,24.20
2019-05-01T16:04:57.479Z,24.00
2019-05-01T16:07:26.890Z,23.40
2019-05-01T16:09:56.851Z,23.90
2019-05-01T16:12:27.850Z,23.80
2019-05-01T16:14:57.347Z,24.00
2019-05-01T16:17:26.959Z,24.10
2019-05-01T16:19:56.415Z,24.30
2019-05-01T16:22:25.863Z,24.00
2019-05-01T16:24:55.235Z,24.10
2019-05-01T16:27:24.811Z,24.00
2019-05-01T16:29:54.172Z,23.90
2019-05-01T16:32:23.595Z,24.00
2019-05-01T16:34:53.049Z,24.00
2019-05-01T16:37:22.575Z,23.90
2019-05-01T16:39:53.570Z,24.00
2019-05-01T16:42:23.676Z,23.90
2019-05-01T16:44:53.236Z,24.00
2019-05-01T16:47:22.682Z,24.10
2019-05-01T16:49:52.036Z,23.70
2019-05-01T16:52:23.430Z,23.90
2019-05-01T16:54:59.104Z,23.90
2019-05-01T16:57:24.349Z,24.10
2019-05-01T16:59:53.888Z,24.10
2019-05-01T17:02:25.204Z,24.20
2019-05-01T17:04:56.282Z,24.30
2019-05-01T17:07:42.683Z,24.10
2019-05-01T17:10:16.676Z,23.90
2019-05-01T17:12:53.735Z,23.90
2019-05-01T17:15:28.083Z,24.00
2019-05-01T17:17:57.506Z,23.60
2019-05-01T17:20:27.228Z,23.60
2019-05-01T17:22:56.814Z,23.60
2019-05-01T17:25:26.296Z,23.60
2019-05-01T17:27:55.768Z,23.60
2019-05-01T17:30:42.933Z,23.50
2019-05-01T17:33:20.162Z,23.50
2019-05-01T17:35:43.643Z,23.40
2019-05-01T17:38:13.032Z,23.40
2019-05-01T17:40:42.444Z,23.20
2019-05-01T17:43:13.514Z,23.10
2019-05-01T17:45:43.039Z,23.10
2019-05-01T17:48:12.416Z,23.10
2019-05-01T17:50:41.828Z,22.90
2019-05-01T17:53:11.317Z,22.80
2019-05-01T17:55:40.804Z,22.80
2019-05-01T17:58:10.151Z,22.80
2019-05-01T18:00:41.342Z,22.60
2019-05-01T18:03:21.178Z,22.50
2019-05-01T18:06:07.505Z,22.60
2019-05-01T18:08:36.955Z,22.40
2019-05-01T18:11:09.237Z,22.40
2019-05-01T18:13:37.492Z,22.30
2019-05-01T18:16:07.298Z,22.10
2019-05-01T18:18:36.730Z,22.00
2019-05-01T18:21:07.214Z,21.90
2019-05-01T18:23:54.664Z,21.70
2019-05-01T18:26:43.500Z,21.70
2019-05-01T18:29:17.846Z,21.60
2019-05-01T18:31:47.207Z,21.50
2019-05-01T18:34:16.587Z,21.40
2019-05-01T18:36:50.124Z,21.30
2019-05-01T18:39:27.376Z,21.20
2019-05-01T18:41:58.598Z,21.20
2019-05-01T18:44:28.148Z,21.20
2019-05-01T18:46:57.777Z,21.00
2019-05-01T18:49:27.144Z,20.90
2019-05-01T18:51:56.569Z,20.90
2019-05-01T18:54:25.973Z,20.80
2019-05-01T18:56:55.402Z,20.80
2019-05-01T18:59:24.851Z,20.70
2019-05-01T19:01:54.930Z,20.70
2019-05-01T19:04:24.737Z,20.80
2019-05-01T19:06:54.225Z,20.70
2019-05-01T19:09:30.224Z,20.70
2019-05-01T19:11:54.866Z,20.60
2019-05-01T19:14:28.720Z,20.60
2019-05-01T19:16:55.859Z,20.60
2019-05-01T19:19:25.278Z,20.60
2019-05-01T19:21:54.828Z,20.40
2019-05-01T19:24:24.853Z,20.40
2019-05-01T19:26:54.292Z,20.30
2019-05-01T19:29:26.675Z,20.20
2019-05-01T19:31:55.076Z,20.10
2019-05-01T19:34:24.435Z,20.00
2019-05-01T19:36:53.930Z,20.10
2019-05-01T19:39:23.397Z,20.10
2019-05-01T19:41:54.565Z,20.10
2019-05-01T19:44:23.839Z,20.00
2019-05-01T19:46:53.420Z,20.00
2019-05-01T19:49:24.583Z,20.00
2019-05-01T19:51:55.470Z,20.00
2019-05-01T19:54:27.874Z,20.40
2019-05-01T19:56:56.578Z,20.00
2019-05-01T19:59:25.952Z,20.00
2019-05-01T20:01:55.407Z,19.90
2019-05-01T20:04:24.795Z,19.90
2019-05-01T20:06:54.250Z,19.80
2019-05-01T20:09:25.381Z,19.70
2019-05-01T20:11:54.758Z,19.40
2019-05-01T20:14:24.281Z,19.20
2019-05-01T20:16:53.711Z,19.20
2019-05-01T20:19:23.096Z,19.10
2019-05-01T20:21:52.533Z,19.10
2019-05-01T20:24:21.968Z,19.00
2019-05-01T20:26:51.508Z,18.80
2019-05-01T20:29:20.932Z,18.80
2019-05-01T20:31:50.983Z,18.70
2019-05-01T20:34:21.114Z,18.60
2019-05-01T20:36:50.554Z,18.50
2019-05-01T20:39:20.060Z,18.50
2019-05-01T20:41:49.566Z,18.40
2019-05-01T20:44:24.068Z,18.40
2019-05-01T20:46:50.053Z,18.40
2019-05-01T20:49:19.438Z,18.40
2019-05-01T20:51:48.811Z,18.30
2019-05-01T20:54:18.262Z,18.20
2019-05-01T20:56:49.278Z,18.10
2019-05-01T20:59:18.783Z,18.10
2019-05-01T21:01:48.255Z,18.00
2019-05-01T21:04:22.335Z,18.00
2019-05-01T21:07:09.954Z,17.90
2019-05-01T21:09:47.582Z,17.80
2019-05-01T21:12:12.072Z,17.70
2019-05-01T21:14:45.285Z,17.60
2019-05-01T21:17:13.669Z,17.40
2019-05-01T21:19:44.156Z,17.50
2019-05-01T21:22:14.265Z,17.40
2019-05-01T21:24:44.510Z,17.30
2019-05-01T21:27:13.994Z,17.10
2019-05-01T21:29:44.540Z,17.40
2019-05-01T21:32:18.289Z,17.30
2019-05-01T21:34:45.285Z,17.30
2019-05-01T21:37:14.735Z,17.20
2019-05-01T21:39:44.116Z,17.30
2019-05-01T21:42:16.042Z,17.10
2019-05-01T21:44:44.555Z,17.10
2019-05-01T21:47:14.115Z,17.20
2019-05-01T21:49:43.687Z,17.20
2019-05-01T21:52:13.613Z,17.20
2019-05-01T21:54:43.078Z,17.10
2019-05-01T21:57:17.423Z,17.20
2019-05-01T21:59:44.901Z,17.10
2019-05-01T22:02:14.803Z,17.20
2019-05-01T22:04:44.285Z,17.20
2019-05-01T22:07:14.107Z,16.90
2019-05-01T22:09:45.638Z,17.00
2019-05-01T22:12:15.066Z,16.60
2019-05-01T22:14:46.097Z,16.90
2019-05-01T22:17:35.352Z,16.90
2019-05-01T22:20:05.703Z,16.90
2019-05-01T22:22:44.038Z,17.00
2019-05-01T22:25:15.659Z,17.00
2019-05-01T22:28:04.415Z,16.90
2019-05-01T22:30:35.408Z,16.90
2019-05-01T22:33:05.536Z,16.90
2019-05-01T22:35:39.523Z,16.90
2019-05-01T22:38:08.894Z,16.70
2019-05-01T22:40:39.962Z,16.70
2019-05-01T22:43:09.457Z,16.70
2019-05-01T22:45:38.944Z,16.60
2019-05-01T22:48:08.404Z,16.70
2019-05-01T22:50:38.135Z,16.40
2019-05-01T22:53:07.827Z,16.60
2019-05-01T22:55:38.572Z,16.70
2019-05-01T22:58:07.995Z,16.60
2019-05-01T23:00:42.023Z,16.70
2019-05-01T23:03:15.997Z,16.70
2019-05-01T23:05:45.423Z,16.60
2019-05-01T23:08:14.973Z,16.60
2019-05-01T23:10:47.092Z,16.60
2019-05-01T23:13:16.191Z,16.50
2019-05-01T23:15:45.611Z,16.50
2019-05-01T23:18:15.758Z,16.40
2019-05-01T23:20:46.037Z,16.40
2019-05-01T23:23:15.487Z,16.40
2019-05-01T23:25:44.922Z,16.20
2019-05-01T23:28:14.356Z,16.10
2019-05-01T23:30:43.787Z,16.30
2019-05-01T23:33:13.175Z,16.00
2019-05-01T23:35:42.602Z,15.90
2019-05-01T23:38:11.975Z,16.00
2019-05-01T23:40:41.366Z,16.00
2019-05-01T23:43:10.728Z,16.00
2019-05-01T23:45:40.165Z,16.10
2019-05-01T23:48:09.526Z,16.10
2019-05-01T23:50:39.382Z,16.00
2019-05-01T23:53:13.493Z,16.10
2019-05-01T23:55:39.959Z,16.20
2019-05-01T23:58:09.338Z,16.00
